Time;durP1;ratioP1;P1;durP2;ratioP2;P2;SDS_P1;SDS_P2;PMS_P1;PMS_P2;Temp;Humidity;BMP_temperature;BMP_pressure;BME280_temperature;BME280_humidity;BME280_pressure;Samples;Min_cycle;Max_cycle;Signal;HPM_P1;HPM_P2
2021/12/22 00:02:16;;;;;;;9.77;5.13;;;0.10;99.90;;;;;;4963380;28;20215;-65
2021/12/22 00:04:46;;;;;;;7.57;5.07;;;0.10;99.90;;;;;;4996035;28;20176;-66
2021/12/22 00:07:14;;;;;;;8.53;5.73;;;0.10;99.90;;;;;;4966138;28;20180;-66
2021/12/22 00:09:43;;;;;;;9.53;5.10;;;0.10;99.90;;;;;;4960711;28;20201;-67
2021/12/22 00:12:10;;;;;;;8.07;4.93;;;0.00;99.90;;;;;;4968500;28;20257;-66
2021/12/22 00:14:36;;;;;;;10.47;5.10;;;0.00;99.90;;;;;;4964225;28;20208;-65
2021/12/22 00:17:02;;;;;;;8.10;5.13;;;0.00;99.90;;;;;;4969895;28;20196;-65
2021/12/22 00:19:28;;;;;;;10.20;5.87;;;0.00;99.90;;;;;;4965330;28;20203;-67
2021/12/22 00:21:53;;;;;;;8.17;5.87;;;0.00;99.90;;;;;;4957909;28;20200;-66
2021/12/22 00:24:21;;;;;;;9.00;5.47;;;0.00;99.90;;;;;;4968611;28;20188;-66
2021/12/22 00:26:49;;;;;;;8.80;5.60;;;0.00;99.90;;;;;;4967061;28;20231;-65
2021/12/22 00:29:16;;;;;;;8.17;5.17;;;0.00;99.90;;;;;;4969970;28;20199;-66
2021/12/22 00:31:56;;;;;;;8.27;4.97;;;0.00;99.90;;;;;;4970337;28;20184;-66
2021/12/22 00:34:26;;;;;;;6.57;4.60;;;0.00;99.90;;;;;;4987911;28;20224;-66
2021/12/22 00:36:52;;;;;;;7.73;5.40;;;-0.10;99.90;;;;;;4963085;28;20196;-67
2021/12/22 00:39:20;;;;;;;9.20;5.50;;;-0.10;99.90;;;;;;4966557;28;20500;-65
2021/12/22 00:41:45;;;;;;;9.57;5.93;;;-0.10;99.90;;;;;;4962958;28;20192;-65
2021/12/22 00:44:13;;;;;;;8.40;5.17;;;-0.10;99.90;;;;;;4966111;28;20204;-66
2021/12/22 00:46:38;;;;;;;7.00;4.97;;;-0.10;99.90;;;;;;4969104;28;20188;-65
2021/12/22 00:49:04;;;;;;;9.83;6.50;;;-0.10;99.90;;;;;;4955675;28;20185;-65
2021/12/22 00:51:32;;;;;;;9.10;5.80;;;-0.10;99.90;;;;;;4974290;28;20299;-66
2021/12/22 00:53:57;;;;;;;13.07;7.60;;;-0.10;99.90;;;;;;4970454;28;20216;-66
2021/12/22 00:56:23;;;;;;;11.17;7.07;;;-0.20;99.90;;;;;;4959742;28;20185;-66
2021/12/22 00:58:49;;;;;;;12.60;7.47;;;-0.20;99.90;;;;;;4973947;28;20208;-66
2021/12/22 01:01:14;;;;;;;11.80;7.70;;;-0.20;99.90;;;;;;4956689;28;20235;-67
2021/12/22 01:03:45;;;;;;;14.67;8.23;;;-0.20;99.90;;;;;;4963728;28;20189;-66
2021/12/22 01:06:13;;;;;;;11.33;7.30;;;-0.20;99.90;;;;;;4976909;28;20216;-65
2021/12/22 01:08:44;;;;;;;12.07;7.17;;;-0.20;99.90;;;;;;4980726;28;20184;-66
2021/12/22 01:11:10;;;;;;;14.57;7.40;;;-0.30;99.90;;;;;;4962367;28;20184;-65
2021/12/22 01:13:35;;;;;;;14.13;7.87;;;-0.30;99.90;;;;;;5005035;28;20210;-65
2021/12/22 01:16:03;;;;;;;13.13;8.17;;;-0.30;99.90;;;;;;4966439;28;20489;-65
2021/12/22 01:18:32;;;;;;;13.43;7.97;;;-0.30;99.90;;;;;;4964370;28;20308;-66
2021/12/22 01:24:25;;;;;;;16.50;8.67;;;-0.40;99.90;;;;;;4969467;28;20175;-66
2021/12/22 01:26:29;;;;;;;12.20;7.00;;;-0.40;99.90;;;;;;4965962;28;20212;-66
2021/12/22 01:28:56;;;;;;;13.07;7.67;;;-0.40;99.90;;;;;;4954076;28;20208;-65
2021/12/22 01:31:21;;;;;;;16.80;8.07;;;-0.40;99.90;;;;;;4966985;28;20196;-67
2021/12/22 01:33:47;;;;;;;13.73;7.67;;;-0.40;99.90;;;;;;4965987;28;20281;-65
2021/12/22 01:36:13;;;;;;;11.93;7.70;;;-0.40;99.90;;;;;;4972373;28;20462;-66
2021/12/22 01:38:41;;;;;;;12.73;7.67;;;-0.40;99.90;;;;;;4964402;28;20187;-66
2021/12/22 01:41:12;;;;;;;15.77;9.23;;;-0.40;99.90;;;;;;4957023;28;20215;-66
2021/12/22 01:43:41;;;;;;;17.57;9.60;;;-0.50;99.90;;;;;;4964519;28;20184;-66
2021/12/22 01:46:31;;;;;;;17.40;9.97;;;-0.50;99.90;;;;;;4971605;28;20191;-66
2021/12/22 01:49:11;;;;;;;17.70;10.20;;;-0.50;99.90;;;;;;4964631;28;20188;-66
2021/12/22 01:51:50;;;;;;;15.10;9.23;;;-0.50;99.90;;;;;;4963143;28;20184;-65
2021/12/22 01:54:21;;;;;;;16.73;8.93;;;-0.60;99.90;;;;;;4964461;28;20223;-64
2021/12/22 01:56:49;;;;;;;11.83;7.80;;;-0.60;99.90;;;;;;4976163;28;20207;-65
2021/12/22 01:59:15;;;;;;;11.30;7.20;;;-0.60;99.90;;;;;;4960249;28;20241;-65
2021/12/22 02:01:43;;;;;;;10.47;6.73;;;-0.60;99.90;;;;;;4965940;28;20207;-65
2021/12/22 02:04:11;;;;;;;13.13;7.33;;;-0.60;99.90;;;;;;4968117;28;20188;-65
2021/12/22 02:06:42;;;;;;;11.03;6.47;;;-0.60;99.90;;;;;;4965471;28;20204;-65
2021/12/22 02:09:10;;;;;;;15.27;8.27;;;-0.60;99.90;;;;;;4966462;28;20201;-65
2021/12/22 02:11:36;;;;;;;12.67;7.90;;;-0.60;99.90;;;;;;4978858;28;20189;-64
2021/12/22 02:14:04;;;;;;;16.43;8.87;;;-0.70;99.90;;;;;;4966115;28;20200;-65
2021/12/22 02:16:37;;;;;;;14.40;8.00;;;-0.70;99.90;;;;;;4968296;28;20204;-65
2021/12/22 02:19:08;;;;;;;14.03;8.63;;;-0.70;99.90;;;;;;4952875;28;20271;-65
2021/12/22 02:21:42;;;;;;;13.20;8.07;;;-0.70;99.90;;;;;;4964770;28;20263;-64
2021/12/22 02:24:11;;;;;;;12.90;7.70;;;-0.70;99.90;;;;;;4970021;28;20187;-65
2021/12/22 02:26:46;;;;;;;12.73;8.03;;;-0.70;99.90;;;;;;4972693;28;20211;-66
2021/12/22 02:29:33;;;;;;;10.80;7.03;;;-0.70;99.90;;;;;;4964154;28;20222;-65
2021/12/22 02:32:07;;;;;;;12.30;7.10;;;-0.80;99.90;;;;;;4966225;28;20375;-65
2021/12/22 02:34:41;;;;;;;11.17;7.00;;;-0.70;99.90;;;;;;4968291;28;20245;-65
2021/12/22 02:37:14;;;;;;;12.87;7.53;;;-0.70;99.90;;;;;;4970431;28;20208;-66
2021/12/22 02:39:53;;;;;;;12.70;8.07;;;-0.80;99.90;;;;;;4956871;28;20223;-65
2021/12/22 02:42:22;;;;;;;13.07;8.13;;;-0.70;99.90;;;;;;5010329;28;20187;-66
2021/12/22 02:44:50;;;;;;;14.67;9.60;;;-0.80;99.90;;;;;;4965437;28;20204;-66
2021/12/22 02:47:22;;;;;;;12.40;7.77;;;-0.80;99.90;;;;;;4982129;28;20183;-66
2021/12/22 02:49:48;;;;;;;11.43;7.37;;;-0.80;99.90;;;;;;4982748;28;20196;-66
2021/12/22 02:52:14;;;;;;;12.57;7.07;;;-0.80;99.90;;;;;;4987203;28;20219;-66
2021/12/22 02:54:50;;;;;;;10.20;6.60;;;-0.80;99.90;;;;;;4963377;28;20207;-64
2021/12/22 02:57:33;;;;;;;12.13;7.63;;;-0.80;99.90;;;;;;4958630;28;20192;-66
2021/12/22 03:00:46;;;;;;;12.23;7.20;;;-0.80;99.90;;;;;;4967049;28;20184;-66
2021/12/22 03:03:06;;;;;;;12.80;7.73;;;-0.80;99.90;;;;;;4957348;28;20280;-66
2021/12/22 03:05:34;;;;;;;12.73;7.53;;;-0.80;99.90;;;;;;4967036;28;20402;-66
2021/12/22 03:07:59;;;;;;;14.77;9.17;;;-0.80;99.90;;;;;;4963025;28;20189;-65
2021/12/22 03:10:27;;;;;;;11.80;7.80;;;-0.80;99.90;;;;;;4985965;28;20299;-65
2021/12/22 03:13:01;;;;;;;13.80;8.10;;;-0.80;99.90;;;;;;4958185;28;20173;-65
2021/12/22 03:15:27;;;;;;;13.00;8.00;;;-0.80;99.90;;;;;;4969309;28;20203;-66
2021/12/22 03:17:53;;;;;;;10.33;7.20;;;-0.80;99.90;;;;;;4960863;28;20223;-65
2021/12/22 03:20:21;;;;;;;10.53;7.47;;;-0.80;99.90;;;;;;4966510;28;20173;-65
2021/12/22 03:22:52;;;;;;;11.13;7.10;;;-0.90;99.90;;;;;;4969585;28;20172;-66
2021/12/22 03:25:20;;;;;;;8.27;6.33;;;-0.90;99.90;;;;;;4970469;28;20200;-65
2021/12/22 03:27:50;;;;;;;12.40;8.10;;;-0.90;99.90;;;;;;5000144;28;20172;-65
2021/12/22 03:30:26;;;;;;;10.27;7.23;;;-0.90;99.90;;;;;;4970110;28;20252;-65
2021/12/22 03:32:52;;;;;;;9.83;6.90;;;-0.90;99.90;;;;;;4967453;28;20258;-65
2021/12/22 03:35:20;;;;;;;9.27;6.90;;;-0.90;99.90;;;;;;4964464;28;20271;-65
2021/12/22 03:37:53;;;;;;;12.10;7.43;;;-0.90;99.90;;;;;;4965400;28;20397;-65
2021/12/22 03:40:20;;;;;;;9.93;6.97;;;-0.90;99.90;;;;;;4963044;28;20193;-65
2021/12/22 03:42:49;;;;;;;9.27;7.13;;;-0.90;99.90;;;;;;4991741;28;20184;-64
2021/12/22 03:45:15;;;;;;;9.47;6.80;;;-0.90;99.90;;;;;;4966511;28;20208;-65
2021/12/22 03:47:42;;;;;;;10.60;6.80;;;-0.90;99.90;;;;;;4975006;28;20189;-65
2021/12/22 03:50:11;;;;;;;11.37;7.70;;;-0.90;99.90;;;;;;5005749;28;20244;-65
2021/12/22 03:52:36;;;;;;;9.10;6.90;;;-0.90;99.90;;;;;;4968274;28;20187;-65
2021/12/22 03:55:04;;;;;;;8.90;6.33;;;-0.90;99.90;;;;;;4958002;28;20231;-65
2021/12/22 03:57:32;;;;;;;9.73;6.80;;;-0.90;99.90;;;;;;4975327;28;20180;-66
2021/12/22 03:59:59;;;;;;;10.10;7.03;;;-0.90;99.90;;;;;;4964713;28;20180;-63
2021/12/22 04:02:26;;;;;;;9.30;6.67;;;-0.90;99.90;;;;;;4967942;28;20202;-65
2021/12/22 04:04:52;;;;;;;9.63;6.53;;;-0.90;99.90;;;;;;4957502;28;20206;-64
2021/12/22 04:07:21;;;;;;;8.53;6.57;;;-0.90;99.90;;;;;;4956985;28;20250;-66
2021/12/22 04:09:49;;;;;;;8.90;6.47;;;-0.90;99.90;;;;;;4962180;28;20299;-65
2021/12/22 04:12:14;;;;;;;8.53;6.53;;;-0.90;99.90;;;;;;4963506;28;20196;-64
2021/12/22 04:14:40;;;;;;;8.10;6.23;;;-0.90;99.90;;;;;;4980890;28;20357;-65
2021/12/22 04:17:08;;;;;;;8.53;5.80;;;-0.90;99.90;;;;;;4963241;28;20233;-64
2021/12/22 04:19:35;;;;;;;9.17;6.70;;;-0.90;99.90;;;;;;4972394;28;20204;-65
2021/12/22 04:22:04;;;;;;;7.00;5.87;;;-0.90;99.90;;;;;;4972075;28;20244;-62
2021/12/22 04:24:31;;;;;;;9.90;6.57;;;-0.90;99.90;;;;;;4964663;28;20216;-65
2021/12/22 04:26:56;;;;;;;7.67;5.73;;;-0.90;99.90;;;;;;4960324;28;20200;-64
2021/12/22 04:29:27;;;;;;;6.33;5.10;;;-0.90;99.90;;;;;;4974023;28;20207;-65
2021/12/22 04:31:52;;;;;;;7.27;5.00;;;-0.90;99.90;;;;;;4964570;28;20184;-64
2021/12/22 04:34:18;;;;;;;6.13;4.90;;;-0.90;99.90;;;;;;4967325;28;20276;-65
2021/12/22 04:36:44;;;;;;;7.03;4.80;;;-0.90;99.90;;;;;;4976976;28;20238;-65
2021/12/22 04:39:10;;;;;;;6.20;4.30;;;-0.90;99.90;;;;;;4971105;28;20227;-65
2021/12/22 04:41:39;;;;;;;6.23;4.23;;;-1.00;99.90;;;;;;4970029;28;20338;-65
2021/12/22 04:44:04;;;;;;;5.37;3.87;;;-1.00;99.90;;;;;;4964820;28;20183;-65
2021/12/22 04:46:33;;;;;;;5.77;3.70;;;-1.00;99.90;;;;;;4970292;28;20199;-65
2021/12/22 04:49:01;;;;;;;4.13;3.40;;;-1.00;99.90;;;;;;4967782;28;20216;-65
2021/12/22 04:51:29;;;;;;;4.97;3.70;;;-1.00;99.90;;;;;;4966309;28;20198;-64
2021/12/22 04:54:12;;;;;;;5.97;3.30;;;-1.10;99.90;;;;;;4961096;28;20208;-65
2021/12/22 04:56:39;;;;;;;6.00;3.33;;;-1.10;99.90;;;;;;4962850;28;20230;-65
2021/12/22 04:59:05;;;;;;;5.20;3.40;;;-1.10;99.90;;;;;;4966129;28;20187;-66
2021/12/22 05:01:33;;;;;;;4.43;3.23;;;-1.10;99.90;;;;;;4966172;28;20211;-65
2021/12/22 05:03:59;;;;;;;4.83;3.10;;;-1.10;99.90;;;;;;4968924;28;20180;-65
2021/12/22 05:06:27;;;;;;;5.03;3.30;;;-1.10;99.90;;;;;;4965417;28;20191;-65
2021/12/22 05:08:53;;;;;;;5.90;3.73;;;-1.10;99.90;;;;;;4961460;28;20308;-65
2021/12/22 05:11:19;;;;;;;5.23;3.13;;;-1.10;99.90;;;;;;4961687;28;20240;-65
2021/12/22 05:13:47;;;;;;;4.03;2.90;;;-1.10;99.90;;;;;;4965966;28;20289;-66
2021/12/22 05:16:18;;;;;;;4.67;3.40;;;-1.10;99.90;;;;;;4966892;28;20185;-66
2021/12/22 05:18:51;;;;;;;4.80;3.50;;;-1.20;99.90;;;;;;4952937;28;20210;-65
2021/12/22 05:21:21;;;;;;;5.03;3.40;;;-1.20;99.90;;;;;;4973074;28;20238;-65
2021/12/22 05:23:48;;;;;;;5.90;3.93;;;-1.20;99.90;;;;;;4996808;28;20242;-66
2021/12/22 05:26:16;;;;;;;6.77;4.33;;;-1.20;99.90;;;;;;4980329;28;20299;-66
2021/12/22 05:28:42;;;;;;;6.23;4.80;;;-1.20;99.90;;;;;;4964765;28;20212;-66
2021/12/22 05:31:08;;;;;;;5.93;4.10;;;-1.20;99.90;;;;;;4958240;28;20203;-66
2021/12/22 05:33:36;;;;;;;5.93;3.70;;;-1.20;99.90;;;;;;4959694;28;20215;-66
2021/12/22 05:36:02;;;;;;;5.27;3.77;;;-1.20;99.90;;;;;;4991478;28;20207;-66
2021/12/22 05:38:27;;;;;;;7.13;4.37;;;-1.20;99.90;;;;;;4961453;28;20184;-66
2021/12/22 05:40:53;;;;;;;5.10;3.90;;;-1.20;99.90;;;;;;4966777;28;20215;-66
2021/12/22 05:43:19;;;;;;;6.80;4.47;;;-1.20;99.90;;;;;;4965839;28;20233;-66
2021/12/22 05:45:45;;;;;;;6.63;5.10;;;-1.20;99.90;;;;;;4957877;28;20184;-66
2021/12/22 05:48:10;;;;;;;9.33;5.67;;;-1.20;99.90;;;;;;4965711;28;20188;-65
2021/12/22 05:50:38;;;;;;;6.67;5.03;;;-1.10;99.90;;;;;;4979894;28;20204;-66
2021/12/22 05:53:04;;;;;;;8.73;5.77;;;-1.10;99.90;;;;;;4963142;28;20181;-66
2021/12/22 05:55:32;;;;;;;9.10;5.97;;;-1.10;99.90;;;;;;4960143;28;20181;-66
2021/12/22 05:57:57;;;;;;;10.37;7.07;;;-1.10;99.90;;;;;;4963124;28;20200;-66
2021/12/22 06:00:23;;;;;;;13.13;8.33;;;-1.10;99.90;;;;;;4971754;28;20184;-66
2021/12/22 06:02:49;;;;;;;10.53;6.70;;;-1.10;99.90;;;;;;4964729;28;20183;-66
2021/12/22 06:05:14;;;;;;;11.47;7.13;;;-1.10;99.90;;;;;;4973217;28;20208;-65
2021/12/22 06:07:40;;;;;;;9.47;7.47;;;-1.10;99.90;;;;;;4970270;28;20214;-66
2021/12/22 06:10:08;;;;;;;11.40;6.77;;;-1.10;99.90;;;;;;4982052;28;20176;-66
2021/12/22 06:12:34;;;;;;;9.13;6.60;;;-1.10;99.90;;;;;;4970174;28;20180;-66
2021/12/22 06:15:00;;;;;;;9.70;7.13;;;-1.10;99.90;;;;;;4955775;28;20211;-66
2021/12/22 06:17:30;;;;;;;11.57;8.00;;;-1.10;99.90;;;;;;4987558;28;20177;-63
2021/12/22 06:19:56;;;;;;;9.50;6.53;;;-1.10;99.90;;;;;;4977626;28;20175;-65
2021/12/22 06:22:22;;;;;;;9.20;6.67;;;-1.10;99.90;;;;;;4977659;28;20180;-64
2021/12/22 06:24:48;;;;;;;10.27;6.93;;;-1.10;99.90;;;;;;4987711;28;20204;-65
2021/12/22 06:27:18;;;;;;;8.03;5.70;;;-1.10;99.90;;;;;;4981611;28;20226;-65
2021/12/22 06:29:44;;;;;;;8.07;5.47;;;-1.10;99.90;;;;;;4976862;28;20192;-66
2021/12/22 06:32:10;;;;;;;8.50;5.70;;;-1.10;99.90;;;;;;4969462;28;20265;-66
2021/12/22 06:34:35;;;;;;;7.13;5.20;;;-1.10;99.90;;;;;;4966190;28;20211;-65
2021/12/22 06:37:01;;;;;;;7.80;4.83;;;-1.10;99.90;;;;;;4967154;28;20311;-65
2021/12/22 06:39:27;;;;;;;8.07;5.60;;;-1.10;99.90;;;;;;4971708;28;20176;-66
2021/12/22 06:41:53;;;;;;;9.43;5.67;;;-1.10;99.90;;;;;;4982776;28;20257;-62
2021/12/22 06:44:18;;;;;;;7.53;5.00;;;-1.10;99.90;;;;;;4985422;28;20295;-62
2021/12/22 06:46:46;;;;;;;6.97;4.63;;;-1.10;99.90;;;;;;4981910;28;20212;-73
2021/12/22 06:49:12;;;;;;;7.63;4.80;;;-1.10;99.90;;;;;;4973648;28;20197;-70
2021/12/22 06:51:38;;;;;;;6.27;4.57;;;-1.10;99.90;;;;;;4962799;28;20318;-70
2021/12/22 06:54:04;;;;;;;7.53;4.70;;;-1.10;99.90;;;;;;4974807;28;20199;-72
2021/12/22 06:56:29;;;;;;;6.73;4.40;;;-1.10;99.90;;;;;;4960656;28;20264;-71
2021/12/22 06:58:59;;;;;;;6.63;4.30;;;-1.10;99.90;;;;;;4964641;28;20191;-73
2021/12/22 07:01:25;;;;;;;8.50;5.37;;;-1.10;99.90;;;;;;4955612;28;20177;-72
2021/12/22 07:03:50;;;;;;;7.37;5.57;;;-1.10;99.90;;;;;;4969786;28;20338;-72
2021/12/22 07:06:16;;;;;;;9.50;6.03;;;-1.10;99.90;;;;;;4961709;28;20185;-73
2021/12/22 07:08:45;;;;;;;8.23;5.13;;;-1.10;99.90;;;;;;4968559;28;20181;-72
2021/12/22 07:11:12;;;;;;;5.50;4.33;;;-1.10;99.90;;;;;;4967246;28;20302;-73
2021/12/22 07:13:37;;;;;;;7.20;4.90;;;-1.10;99.90;;;;;;5029287;28;20228;-72
2021/12/22 07:16:03;;;;;;;6.40;4.80;;;-1.10;99.90;;;;;;4968853;28;20204;-71
2021/12/22 07:18:36;;;;;;;7.57;5.40;;;-1.10;99.90;;;;;;4995977;28;20225;-72
2021/12/22 07:21:02;;;;;;;7.23;4.70;;;-1.10;99.90;;;;;;4971086;28;20283;-72
2021/12/22 07:23:28;;;;;;;8.47;4.87;;;-1.10;99.90;;;;;;4972710;28;20209;-72
2021/12/22 07:25:56;;;;;;;6.03;4.67;;;-1.10;99.90;;;;;;4965714;28;20184;-73
2021/12/22 07:28:24;;;;;;;6.37;4.57;;;-1.10;99.90;;;;;;4965952;28;20238;-73
2021/12/22 07:30:50;;;;;;;7.90;5.47;;;-1.10;99.90;;;;;;4970145;28;20188;-73
2021/12/22 07:33:17;;;;;;;8.20;5.87;;;-1.10;99.90;;;;;;4963923;28;20189;-71
2021/12/22 07:36:13;;;;;;;9.90;5.73;;;-1.10;99.90;;;;;;4980659;28;20200;-73
2021/12/22 07:38:59;;;;;;;8.20;5.80;;;-1.10;99.90;;;;;;4973587;28;20189;-74
2021/12/22 07:41:28;;;;;;;10.67;6.50;;;-1.10;99.90;;;;;;4967254;28;20275;-72
2021/12/22 07:43:56;;;;;;;9.20;6.13;;;-1.00;99.90;;;;;;4969172;28;20265;-74
2021/12/22 07:46:22;;;;;;;11.97;6.50;;;-1.10;99.90;;;;;;4965431;28;20271;-70
2021/12/22 07:48:48;;;;;;;8.40;5.33;;;-1.00;99.90;;;;;;4990902;28;20299;-72
2021/12/22 07:51:16;;;;;;;8.70;5.70;;;-1.00;99.90;;;;;;4967562;28;20251;-71
2021/12/22 07:53:44;;;;;;;8.90;6.43;;;-1.00;99.90;;;;;;4968932;28;20279;-70
2021/12/22 07:56:10;;;;;;;9.60;5.87;;;-1.00;99.90;;;;;;4965692;28;20185;-71
2021/12/22 07:58:36;;;;;;;9.40;6.13;;;-0.90;99.90;;;;;;4962153;28;20173;-70
2021/12/22 08:01:04;;;;;;;8.90;6.07;;;-0.90;99.90;;;;;;4971540;28;20801;-72
2021/12/22 08:03:29;;;;;;;7.53;5.50;;;-0.90;99.90;;;;;;5005091;28;20180;-71
2021/12/22 08:05:56;;;;;;;9.00;5.97;;;-0.80;99.90;;;;;;4972097;28;20188;-71
2021/12/22 08:08:21;;;;;;;10.27;6.00;;;-0.80;99.90;;;;;;4990080;28;20290;-71
2021/12/22 08:10:47;;;;;;;8.00;5.67;;;-0.80;99.90;;;;;;4965376;28;20283;-71
2021/12/22 08:13:15;;;;;;;10.10;6.37;;;-0.70;99.90;;;;;;4963628;28;20185;-72
2021/12/22 08:15:41;;;;;;;9.27;6.07;;;-0.70;99.90;;;;;;4961893;28;20195;-70
2021/12/22 08:18:07;;;;;;;9.23;6.43;;;-0.70;99.90;;;;;;4961101;28;20176;-73
2021/12/22 08:20:34;;;;;;;9.23;6.73;;;-0.60;99.90;;;;;;4973693;28;20272;-72
2021/12/22 08:22:59;;;;;;;8.33;5.83;;;-0.60;99.90;;;;;;4972615;28;20195;-72
2021/12/22 08:25:25;;;;;;;8.97;6.00;;;-0.60;99.90;;;;;;4963647;28;20181;-73
2021/12/22 08:27:51;;;;;;;8.57;6.13;;;-0.60;99.90;;;;;;4964196;28;20219;-71
2021/12/22 08:30:20;;;;;;;8.77;5.80;;;-0.50;99.90;;;;;;4964246;28;20196;-73
2021/12/22 08:32:46;;;;;;;8.93;5.70;;;-0.50;99.90;;;;;;4963667;28;20220;-73
2021/12/22 08:35:16;;;;;;;9.03;6.10;;;-0.50;99.90;;;;;;4959586;28;20258;-72
2021/12/22 08:40:31;;;;;;;9.67;6.40;;;-0.40;99.90;;;;;;4961420;28;20214;-74
2021/12/22 08:42:59;;;;;;;9.63;6.27;;;-0.40;99.90;;;;;;4980739;28;20191;-74
2021/12/22 08:45:26;;;;;;;10.50;7.23;;;-0.40;99.90;;;;;;4989131;28;20199;-73
2021/12/22 08:47:52;;;;;;;10.93;6.93;;;-0.30;99.90;;;;;;4971446;28;20271;-72
2021/12/22 08:50:24;;;;;;;8.60;6.17;;;-0.30;99.90;;;;;;4997389;28;20200;-74
2021/12/22 08:52:54;;;;;;;12.00;7.07;;;-0.30;99.90;;;;;;4986395;28;20176;-75
2021/12/22 08:55:20;;;;;;;9.70;7.37;;;-0.20;99.90;;;;;;4961826;28;20503;-73
2021/12/22 08:57:46;;;;;;;9.03;6.73;;;-0.20;99.90;;;;;;4962623;28;20282;-70
2021/12/22 09:00:12;;;;;;;12.90;7.13;;;-0.20;99.90;;;;;;4977008;28;20238;-73
2021/12/22 09:02:44;;;;;;;9.23;6.87;;;-0.10;99.90;;;;;;4958751;28;20176;-74
2021/12/22 09:05:12;;;;;;;10.27;7.17;;;-0.10;99.90;;;;;;4968018;28;20220;-73
2021/12/22 09:07:40;;;;;;;10.57;7.10;;;-0.10;99.90;;;;;;4965323;28;20208;-74
2021/12/22 09:10:06;;;;;;;10.33;7.07;;;0.00;99.90;;;;;;4960221;28;20204;-73
2021/12/22 09:12:31;;;;;;;10.93;7.70;;;0.10;99.90;;;;;;4977825;28;20329;-71
2021/12/22 09:14:57;;;;;;;7.97;6.10;;;0.20;99.90;;;;;;4966596;28;20196;-72
2021/12/22 09:17:23;;;;;;;10.27;7.47;;;0.30;99.90;;;;;;4968051;28;20310;-71
2021/12/22 09:19:52;;;;;;;9.77;7.37;;;0.50;99.90;;;;;;4981229;28;20311;-74
2021/12/22 09:22:17;;;;;;;8.70;6.43;;;0.70;99.90;;;;;;4970795;28;20278;-72
2021/12/22 09:24:43;;;;;;;10.87;6.93;;;0.90;99.90;;;;;;4999079;28;20184;-71
2021/12/22 09:27:11;;;;;;;9.93;6.97;;;1.00;99.90;;;;;;4965737;28;20197;-70
2021/12/22 09:29:37;;;;;;;11.17;7.27;;;1.20;99.90;;;;;;4964667;28;20196;-72
2021/12/22 09:32:04;;;;;;;11.23;7.17;;;1.40;99.90;;;;;;4959373;28;20208;-72
2021/12/22 09:34:30;;;;;;;10.10;6.53;;;1.50;99.90;;;;;;4982640;28;20257;-72
2021/12/22 09:36:57;;;;;;;9.50;7.00;;;1.60;99.90;;;;;;4959224;28;20188;-73
2021/12/22 09:39:25;;;;;;;10.07;7.73;;;1.70;99.90;;;;;;4967237;28;20169;-70
2021/12/22 09:41:53;;;;;;;9.60;7.17;;;1.70;99.90;;;;;;4968866;28;20208;-73
2021/12/22 09:44:19;;;;;;;12.17;7.37;;;1.80;99.90;;;;;;4964340;28;20208;-73
2021/12/22 09:46:49;;;;;;;11.93;7.13;;;1.90;99.90;;;;;;4982986;28;20194;-71
2021/12/22 09:49:36;;;;;;;11.90;7.07;;;2.00;99.90;;;;;;4979370;28;20186;-72
2021/12/22 09:52:23;;;;;;;7.87;6.37;;;2.00;99.90;;;;;;4971944;28;20261;-72
2021/12/22 09:54:52;;;;;;;8.00;6.40;;;2.10;99.90;;;;;;4972391;28;20208;-73
2021/12/22 09:57:22;;;;;;;11.10;6.73;;;2.10;99.90;;;;;;4971500;28;20268;-71
2021/12/22 09:59:52;;;;;;;10.70;7.07;;;2.20;99.90;;;;;;4968610;28;20184;-72
2021/12/22 10:02:22;;;;;;;8.57;6.07;;;2.30;99.90;;;;;;4978463;28;20270;-71
2021/12/22 10:04:48;;;;;;;9.13;6.43;;;2.40;99.90;;;;;;5001332;28;20294;-75
2021/12/22 10:07:21;;;;;;;10.00;7.20;;;2.40;99.90;;;;;;4986133;28;20184;-70
2021/12/22 10:09:48;;;;;;;9.20;6.93;;;2.50;99.90;;;;;;4987284;28;20188;-72
2021/12/22 10:12:25;;;;;;;9.47;6.90;;;2.60;99.90;;;;;;5004144;28;20185;-72
2021/12/22 10:15:00;;;;;;;8.63;6.20;;;2.60;99.90;;;;;;4999498;28;20196;-71
2021/12/22 10:17:37;;;;;;;8.43;5.90;;;2.70;99.90;;;;;;4984116;28;20193;-71
2021/12/22 10:20:08;;;;;;;8.00;6.00;;;2.80;99.90;;;;;;4978304;28;20184;-71
2021/12/22 10:22:37;;;;;;;9.33;6.30;;;2.90;99.90;;;;;;4986352;28;20211;-70
2021/12/22 10:25:09;;;;;;;8.23;6.13;;;3.10;99.90;;;;;;4990467;28;20196;-72
2021/12/22 10:27:37;;;;;;;8.17;6.80;;;3.20;99.90;;;;;;4986586;28;20256;-74
2021/12/22 10:30:24;;;;;;;9.30;6.90;;;3.30;99.90;;;;;;4979572;28;20207;-70
2021/12/22 10:33:06;;;;;;;9.47;7.23;;;3.50;99.90;;;;;;4980280;28;20176;-75
2021/12/22 10:35:33;;;;;;;8.43;6.60;;;3.70;99.90;;;;;;4960271;28;20196;-73
2021/12/22 10:38:00;;;;;;;11.33;6.00;;;3.90;99.90;;;;;;4976893;28;20228;-72
2021/12/22 10:40:32;;;;;;;8.07;5.80;;;4.10;99.90;;;;;;4966982;28;20188;-71
2021/12/22 10:42:59;;;;;;;8.73;6.40;;;4.20;99.90;;;;;;4965889;28;20191;-73
2021/12/22 10:45:30;;;;;;;9.23;6.33;;;4.20;99.90;;;;;;4976846;28;20184;-73
2021/12/22 10:50:44;;;;;;;7.40;5.60;;;4.30;99.90;;;;;;4977992;28;20218;-75
2021/12/22 10:53:13;;;;;;;7.20;5.77;;;4.30;99.90;;;;;;4968673;28;20246;-76
2021/12/22 10:55:48;;;;;;;7.73;5.73;;;4.30;99.90;;;;;;4967465;28;20195;-78
2021/12/22 10:58:32;;;;;;;7.23;5.43;;;4.30;99.90;;;;;;4985365;28;20199;-79
2021/12/22 11:01:18;;;;;;;8.00;5.57;;;4.40;99.90;;;;;;4979165;28;20175;-76
2021/12/22 11:03:48;;;;;;;7.17;5.40;;;4.40;99.90;;;;;;4960177;28;20224;-77
2021/12/22 11:06:25;;;;;;;6.47;5.07;;;4.50;99.90;;;;;;4976646;28;20262;-75
2021/12/22 11:09:04;;;;;;;8.43;6.13;;;4.50;99.90;;;;;;4980634;28;20172;-75
2021/12/22 11:11:38;;;;;;;7.17;5.73;;;4.50;99.90;;;;;;4982336;28;20171;-74
2021/12/22 11:14:10;;;;;;;6.70;5.27;;;4.50;99.90;;;;;;4967288;28;20205;-74
2021/12/22 11:16:56;;;;;;;7.67;5.60;;;4.50;99.90;;;;;;5014159;28;20201;-72
2021/12/22 11:19:24;;;;;;;7.27;5.07;;;4.60;99.90;;;;;;4978110;28;20242;-74
2021/12/22 11:22:03;;;;;;;7.07;5.10;;;4.60;99.90;;;;;;5002557;28;20192;-74
2021/12/22 11:24:35;;;;;;;7.53;5.50;;;4.70;99.90;;;;;;4969581;28;20181;-79
2021/12/22 11:27:01;;;;;;;7.13;5.53;;;4.70;99.90;;;;;;4969778;28;20453;-75
2021/12/22 11:29:33;;;;;;;8.97;6.33;;;4.70;99.90;;;;;;4971070;28;20447;-75
2021/12/22 11:32:01;;;;;;;8.10;5.97;;;4.70;99.90;;;;;;4972059;28;20172;-72
2021/12/22 11:34:34;;;;;;;7.27;5.13;;;4.70;99.90;;;;;;4963541;28;20254;-75
2021/12/22 11:37:02;;;;;;;6.33;5.20;;;4.60;99.90;;;;;;4964751;28;20233;-72
2021/12/22 11:39:30;;;;;;;8.10;6.20;;;4.70;99.90;;;;;;4979767;28;20253;-72
2021/12/22 11:42:02;;;;;;;6.90;5.40;;;4.90;99.90;;;;;;4972242;28;20192;-75
2021/12/22 11:44:34;;;;;;;6.50;5.33;;;5.00;99.90;;;;;;4970845;28;20210;-79
2021/12/22 11:47:04;;;;;;;7.97;5.40;;;5.10;99.90;;;;;;4986553;28;20216;-74
2021/12/22 11:49:34;;;;;;;7.37;5.83;;;5.20;99.90;;;;;;4978860;28;20208;-81
2021/12/22 11:52:02;;;;;;;6.23;5.10;;;5.30;99.90;;;;;;4965882;28;20203;-76
2021/12/22 11:54:28;;;;;;;7.40;6.03;;;5.50;99.90;;;;;;4987449;28;20265;-74
2021/12/22 11:56:59;;;;;;;7.73;6.27;;;5.50;99.90;;;;;;4975111;28;20195;-77
2021/12/22 11:59:24;;;;;;;8.20;6.80;;;5.60;99.90;;;;;;4966335;28;20249;-85
2021/12/22 12:02:17;;;;;;;10.03;6.53;;;5.60;99.90;;;;;;4967019;28;20239;-78
2021/12/22 12:04:43;;;;;;;7.17;5.97;;;5.60;99.90;;;;;;4956457;28;20310;-75
2021/12/22 12:07:13;;;;;;;7.80;6.20;;;5.70;99.90;;;;;;4971429;28;20180;-74
2021/12/22 12:09:46;;;;;;;9.33;7.07;;;5.70;99.90;;;;;;4973704;28;20176;-76
2021/12/22 12:12:50;;;;;;;8.47;6.37;;;5.80;99.90;;;;;;4981741;28;20195;-74
2021/12/22 12:21:36;;;;;;;9.97;7.10;;;5.90;99.90;;;;;;4958036;28;20274;-75
2021/12/22 12:21:55;;;;;;;7.87;6.03;;;5.90;99.90;;;;;;4967749;28;20344;-78
2021/12/22 12:24:30;;;;;;;7.60;6.00;;;5.90;99.90;;;;;;4982572;28;20230;-77
2021/12/22 12:27:00;;;;;;;7.90;5.90;;;5.90;99.90;;;;;;4954730;28;20409;-76
2021/12/22 12:30:06;;;;;;;6.90;6.10;;;5.90;99.90;;;;;;4984579;28;20207;-76
2021/12/22 12:32:40;;;;;;;6.30;5.10;;;6.00;99.90;;;;;;4956768;28;20190;-77
2021/12/22 12:35:23;;;;;;;7.93;6.20;;;6.00;99.90;;;;;;4968231;28;20210;-72
2021/12/22 12:38:15;;;;;;;8.50;6.00;;;6.20;99.90;;;;;;4969789;28;20168;-75
2021/12/22 12:41:05;;;;;;;7.83;5.97;;;6.20;99.90;;;;;;4959150;28;20312;-75
2021/12/22 12:43:43;;;;;;;;;;;;;;;;;;;;;
2021/12/22 12:46:20;;;;;;;7.30;5.77;;;6.50;99.90;;;;;;4968763;28;20274;-73
2021/12/22 12:48:52;;;;;;;9.60;6.40;;;6.60;99.90;;;;;;4968089;28;20188;-79
2021/12/22 12:51:17;;;;;;;8.07;5.83;;;6.60;99.90;;;;;;4970964;28;20271;-80
2021/12/22 12:53:49;;;;;;;6.30;5.33;;;6.50;99.90;;;;;;4972722;28;20284;-77
2021/12/22 12:56:17;;;;;;;8.37;6.00;;;6.50;99.90;;;;;;4982318;28;20180;-80
2021/12/22 12:58:54;;;;;;;7.97;6.40;;;6.50;99.90;;;;;;4984375;28;20180;-77
2021/12/22 13:01:52;;;;;;;8.07;5.60;;;6.40;99.90;;;;;;4961422;28;20276;-78
2021/12/22 13:04:31;;;;;;;11.33;6.10;;;6.40;99.90;;;;;;4972960;28;20191;-81
2021/12/22 13:07:00;;;;;;;7.43;5.97;;;6.40;99.90;;;;;;4974915;28;20245;-79
2021/12/22 13:09:29;;;;;;;8.83;6.63;;;6.40;99.90;;;;;;4989268;28;20184;-77
2021/12/22 13:12:10;;;;;;;8.80;6.50;;;6.40;99.90;;;;;;4957474;28;20209;-80
2021/12/22 13:17:28;;;;;;;7.13;5.67;;;6.30;99.90;;;;;;4962601;28;20215;-79